Liber, Indiana
Current Conditions -  °F | °C
As of 11:03 PM on Sunday 25 Jan 2015 (Local Time) from KMIE Reporting Station
Light Snow Light Snow  
Wind Chill:   Ceiling: 3200
Heat Index: 20°   Visibility: 2mi
Dew Point: 16°   Wind: 17mph
Humidity: 85%   Direction: 50°NE
Pressure: 29.83"   Gusts: 29mph
Location:  40.4312°N, 85.0058°W
Report Text: KMIE 260403Z AUTO 05015G25KT 2SM -SN BR FEW012 OVC032 M07/M09 A2983 RMK AO2 P0000 T10671089
Loading
Personal Weather Stations






























Interactive Weather Map New forecast layout! Learn more

10-Day Weather Forecast

Advertisements
Track Severe Weather on mobile